Ana Sayfa
METAR-TAF:

METAR-TAF

Havaalanları :

Kerrville Municipal Airport (Louis Schreiner Field)

Kerrville, Teksas, Amerika Birleşik Devletleri

Enlem: 29-58N, Boylam: 099-05W, yükseklik: 493 m

Güncel hava durumu gözlemi

Rapor saat 12:55 UTC de 8 dakika önce yapıldı.
Sakin rüzgar
Sıcaklık 23°C
Nem 94%
Basınç 1022 hPa
Görüş mesafesi: 8.0 km
1000 ft yükseklikte çok bulutlu
Pus

METAR: KERV 271255Z AUTO 00000KT 5SM BR OVC010 23/22 A3019 RMK AO2 T02330216

Saat: 08:03 (13:03 UTC)


TAF: eksik

4.000'den fazla havaalanı için hava durumu gözlemleri ve tahminleri (METAR ve TAF raporları).

Kullanılabilir istasyonlar harita üzerinde sarı ve kırmızı noktalarla gösterilir.

İstasyonun adını görmek için fareyi noktanın üzerinde gezdirin.

Sonrasında hava gözlem ve tahminlerini görmek için tıklayın.

Haritayı değiştirmek için: yaklaştırmak için siyah artı işaretli yeşil düğmeye ve uzaklaştırmak için de eksi işaretli düğmeye hızla tıklayın; bitişik haritalar için yeşil okları kullanın.


METAR-TAF: